Home > Products > Valid Products > MTR

000
SAUS45 KMSO 240654
MTRP69
METAR KP69 240652Z AUTO 00000KT 13/11 A3003 RMK AO1 SLP157 T01280111
$





000
SAUS45 KMSO 240554
MTRP69
METAR KP69 240552Z AUTO 00000KT 13/12 A3002 RMK AO1 SLP152 T01330122
10150 20128 50005 $





000
SAUS45 KMSO 240454
MTRP69
METAR KP69 240452Z AUTO 00000KT 13/12 A3002 RMK AO1 SLP155 T01330122
$





000
SAUS45 KMSO 240354
MTRP69
METAR KP69 240352Z AUTO 00000KT 13/12 A3002 RMK AO1 SLP159 T01280117
$





000
SAUS45 KMSO 240254
MTRP69
METAR KP69 240252Z AUTO 00000KT 14/13 A3000 RMK AO1 SLP153 T01390128
51015 $





000
SAUS45 KMSO 240154
MTRP69
METAR KP69 240152Z AUTO 00000KT 13/12 A2999 RMK AO1 SLP153 T01330122
$





000
SAUS45 KMSO 240154
MTRP69
METAR KP69 240152Z AUTO 00000KT 13/12 A2999 RMK AO1 SLP153 T01330122
$





000
SAUS45 KMSO 240053
MTRP69
METAR KP69 240052Z AUTO 00000KT 14/12 A2998 RMK AO1 SLP147 T01390122
$





000
SAUS45 KMSO 232353
MTRP69
METAR KP69 232352Z AUTO 00000KT 15/13 A2995 RMK AO1 SLP138 60009
T01500133 10272 20150 $





000
SAUS45 KMSO 232353
MTRP69
METAR KP69 232352Z AUTO 00000KT 15/13 A2995 RMK AO1 SLP138 60009
T01500133 10272 20150 $





000
SAUS45 KMSO 232254
MTRP69
METAR KP69 232252Z AUTO 00000KT 16/15 A2994 RMK AO1 PRESRR SLP131
P0009 T01610150





000
SAUS45 KMSO 232254
MTRP69
METAR KP69 232252Z AUTO 00000KT 16/15 A2994 RMK AO1 PRESRR SLP131
P0009 T01610150





000
SAUS45 KMSO 232153
MTRP69
METAR KP69 232152Z AUTO 00000KT 25/12 A2989 RMK AO1 SLP104 T02500117





000
SAUS45 KMSO 232054
MTRP69
METAR KP69 232052Z AUTO 16008G15KT 24/12 A2989 RMK AO1 SLP107
T02390117 58012





000
SAUS45 KMSO 231954
MTRP69
METAR KP69 231952Z AUTO VRB06KT 24/12 A2991 RMK AO1 SLP111 T02440117





000
SAUS45 KMSO 231854
MTRP69
METAR KP69 231852Z AUTO 16009KT 23/11 A2992 RMK AO1 SLP116 T02280106





000
SAUS45 KMSO 231754
MTRP69
METAR KP69 231752Z AUTO 17012KT 21/11 A2993 RMK AO1 SLP122 T02110111
10211 20111 58018





000
SAUS45 KMSO 231754
MTRP69
METAR KP69 231752Z AUTO 17012KT 21/11 A2993 RMK AO1 SLP122 T02110111
10211 20111 58018





000
SAUS45 KMSO 231654
MTRP69
METAR KP69 231652Z AUTO 16007KT 100V180 21/11 A2995 RMK AO1 SLP128
T02060111





000
SAUS45 KMSO 231654
MTRP69
METAR KP69 231652Z AUTO 16007KT 100V180 21/11 A2995 RMK AO1 SLP128
T02060111





000
SAUS45 KMSO 231554
MTRP69
METAR KP69 231552Z AUTO 00000KT 16/11 A2998 RMK AO1 SLP139 T01560111





000
SAUS45 KMSO 231454
MTRP69
METAR KP69 231452Z AUTO 18003KT 14/11 A2999 RMK AO1 SLP144 T01390106
50007





000
SAUS45 KMSO 231354
MTRP69
METAR KP69 231352Z AUTO 00000KT 12/10 A3000 RMK AO1 SLP149 T01170100





000
SAUS45 KMSO 231254
MTRP69
METAR KP69 231252Z AUTO 00000KT 12/10 A2999 RMK AO1 SLP143 T01170100





000
SAUS45 KMSO 231254
MTRP69
METAR KP69 231252Z AUTO 00000KT 12/10 A2999 RMK AO1 SLP143 T01170100





000
SAUS45 KMSO 231153
MTRP69
METAR KP69 231152Z AUTO 00000KT 12/11 A2996 RMK AO1 SLP136 T01170106
10150 20117 51009





000
SAUS45 KMSO 231153
MTRP69
METAR KP69 231152Z AUTO 00000KT 12/11 A2996 RMK AO1 SLP136 T01170106
10150 20117 51009





000
SAUS45 KMSO 231054
MTRP69
METAR KP69 231052Z AUTO 00000KT 12/11 A2996 RMK AO1 SLP134 T01220106





000
SAUS45 KMSO 231054
MTRP69
METAR KP69 231052Z AUTO 00000KT 12/11 A2996 RMK AO1 SLP134 T01220106





000
SAUS45 KMSO 230953
MTRP69
METAR KP69 230952Z AUTO 00000KT 13/11 A2995 RMK AO1 SLP128 T01280111





000
SAUS45 KMSO 230953
MTRP69
METAR KP69 230952Z AUTO 00000KT 13/11 A2995 RMK AO1 SLP128 T01280111





000
SAUS45 KMSO 230853
MTRP69
METAR KP69 230852Z AUTO 00000KT 14/12 A2994 RMK AO1 SLP116 T01390117
51020





000
SAUS45 KMSO 230853
MTRP69
METAR KP69 230852Z AUTO 00000KT 14/12 A2994 RMK AO1 SLP116 T01390117
51020





000
SAUS45 KMSO 230754
MTRP69
METAR KP69 230752Z AUTO 00000KT 14/12 A2992 RMK AO1 SLP113 T01390117
403000094





000
SAUS45 KMSO 230754
MTRP69
METAR KP69 230752Z AUTO 00000KT 14/12 A2992 RMK AO1 SLP113 T01390117
403000094





000
SAUS45 KMSO 230653
MTRP69
METAR KP69 230652Z AUTO 00000KT 14/12 A2990 RMK AO1 SLP106 T01440117





000
SAUS45 KMSO 230653
MTRP69
METAR KP69 230652Z AUTO 00000KT 14/12 A2990 RMK AO1 SLP106 T01440117





000
SAUS45 KMSO 230554
MTRP69
METAR KP69 230552Z AUTO 00000KT 14/12 A2987 RMK AO1 SLP102 T01440122
10211 20144 51028





000
SAUS45 KMSO 230554
MTRP69
METAR KP69 230552Z AUTO 00000KT 14/12 A2987 RMK AO1 SLP102 T01440122
10211 20144 51028





000
SAUS45 KMSO 230453
MTRP69
METAR KP69 230452Z AUTO 00000KT 16/13 A2986 RMK AO1 SLP100 T01560128





000
SAUS45 KMSO 230354
MTRP69
METAR KP69 230352Z AUTO 00000KT 17/13 A2982 RMK AO1 SLP089 T01720128





000
SAUS45 KMSO 230354
MTRP69
METAR KP69 230352Z AUTO 00000KT 17/13 A2982 RMK AO1 SLP089 T01720128





000
SAUS45 KMSO 230254
MTRP69
METAR KP69 230252Z AUTO 00000KT 18/13 A2979 RMK AO1 SLP078 T01780133
53015





000
SAUS45 KMSO 230154
MTRP69
METAR KP69 230152Z AUTO 00000KT 18/12 A2977 RMK AO1 SLP072 T01830122





000
SAUS45 KMSO 230154
MTRP69
METAR KP69 230152Z AUTO 00000KT 18/12 A2977 RMK AO1 SLP072 T01830122





000
SAUS45 KMSO 230054
MTRP69
METAR KP69 230052Z AUTO 00000KT 21/14 A2974 RMK AO1 SLP062 T02110139





000
SAUS45 KMSO 230054
MTRP69
METAR KP69 230052Z AUTO 00000KT 21/14 A2974 RMK AO1 SLP062 T02110139





000
SAUS45 KMSO 222354
MTRP69
METAR KP69 222352Z AUTO VRB03KT 20/13 A2974 RMK AO1 SLP062 T02000128
10300 20189 50004





000
SAUS45 KMSO 222253
MTRP69
METAR KP69 222252Z AUTO 20004KT 20/12 A2975 RMK AO1 SLP066 T02000117





000
SAUS45 KMSO 222154
MTRP69
METAR KP69 222152Z AUTO 00000KT 23/09 A2973 RMK AO1 SLP054 T02280089





000
SAUS45 KMSO 222054
MTRP69
METAR KP69 222052Z AUTO VRB05KT 29/08 A2973 RMK AO1 SLP048 T02890083
56031





000
SAUS45 KMSO 221954
MTRP69
METAR KP69 221952Z AUTO 00000KT 28/07 A2975 RMK AO1 SLP057 T02780072





000
SAUS45 KMSO 221954
MTRP69
METAR KP69 221952Z AUTO 00000KT 28/07 A2975 RMK AO1 SLP057 T02780072





000
SAUS45 KMSO 221854
MTRP69
METAR KP69 221852Z AUTO 00000KT 25/08 A2979 RMK AO1 SLP070 T02500078





000
SAUS45 KMSO 221854
MTRP69
METAR KP69 221852Z AUTO 00000KT 25/08 A2979 RMK AO1 SLP070 T02500078





000
SAUS45 KMSO 221754
MTRP69
METAR KP69 221752Z AUTO 36003KT 22/09 A2983 RMK AO1 SLP086 T02170089
10217 20094 58028





000
SAUS45 KMSO 221754
MTRP69
METAR KP69 221752Z AUTO 36003KT 22/09 A2983 RMK AO1 SLP086 T02170089
10217 20094 58028





000
SAUS45 KMSO 221654
MTRP69
METAR KP69 221652Z AUTO 00000KT 18/08 A2987 RMK AO1 SLP103 T01780083





000
SAUS45 KMSO 221554
MTRP69
METAR KP69 221552Z AUTO 00000KT 14/10 A2990 RMK AO1 SLP114 T01390100





000
SAUS45 KMSO 221454
MTRP69
METAR KP69 221452Z AUTO 00000KT 12/09 A2991 RMK AO1 SLP122 T01170094
58000





000
SAUS45 KMSO 221353
MTRP69
METAR KP69 221352Z AUTO 00000KT 10/09 A2993 RMK AO1 SLP127 T01000089





000
SAUS45 KMSO 221254
MTRP69
METAR KP69 221252Z AUTO 00000KT 10/08 A2993 RMK AO1 SLP126 T01000083





000
SAUS45 KMSO 221254
MTRP69
METAR KP69 221252Z AUTO 00000KT 10/08 A2993 RMK AO1 SLP126 T01000083





000
SAUS45 KMSO 221153
MTRP69
METAR KP69 221152Z AUTO 33003KT 10/09 A2991 RMK AO1 SLP118 T01000089
10139 20100 51005





000
SAUS45 KMSO 221153
MTRP69
METAR KP69 221152Z AUTO 33003KT 10/09 A2991 RMK AO1 SLP118 T01000089
10139 20100 51005





000
SAUS45 KMSO 221053
MTRP69
METAR KP69 221052Z AUTO 00000KT 10/09 A2991 RMK AO1 SLP114 T01000089





000
SAUS45 KMSO 220954
MTRP69
METAR KP69 220952Z AUTO 00000KT 11/09 A2991 RMK AO1 SLP110 T01110094





000
SAUS45 KMSO 220853
MTRP69
METAR KP69 220852Z AUTO 00000KT 12/10 A2990 RMK AO1 SLP110 T01170100
51009





000
SAUS45 KMSO 220754
MTRP69
METAR KP69 220752Z AUTO 00000KT 12/11 A2989 RMK AO1 SLP108 T01220106
403000083





000
SAUS45 KMSO 220653
MTRP69
METAR KP69 220652Z AUTO 00000KT 13/11 A2988 RMK AO1 SLP102 T01330111





000
SAUS45 KMSO 220653
MTRP69
METAR KP69 220652Z AUTO 00000KT 13/11 A2988 RMK AO1 SLP102 T01330111





000
SAUS45 KMSO 220554
MTRP69
METAR KP69 220552Z AUTO 00000KT 14/12 A2987 RMK AO1 SLP102 T01390117
10228 20133 51014





000
SAUS45 KMSO 220454
MTRP69
METAR KP69 220452Z AUTO 34003KT 14/12 A2986 RMK AO1 SLP099 T01440117





000
SAUS45 KMSO 220354
MTRP69
METAR KP69 220352Z AUTO 20004KT 17/12 A2984 RMK AO1 SLP096 T01670117





000
SAUS45 KMSO 220254
MTRP69
METAR KP69 220252Z AUTO 20004KT 17/12 A2983 RMK AO1 SLP092 T01720122
53017





000
SAUS45 KMSO 220254
MTRP69
METAR KP69 220252Z AUTO 20004KT 17/12 A2983 RMK AO1 SLP092 T01720122
53017





000
SAUS45 KMSO 220153
MTRP69
METAR KP69 220152Z AUTO 00000KT 18/11 A2981 RMK AO1 SLP090 T01830111





000
SAUS45 KMSO 220054
MTRP69
METAR KP69 220052Z AUTO 00000KT 21/09 A2979 RMK AO1 SLP078 T02110094





000
SAUS45 KMSO 212354
MTRP69
METAR KP69 212352Z AUTO 00000KT 23/11 A2978 RMK AO1 SLP072 T02280111
10300 20211 55007





000
SAUS45 KMSO 212354
MTRP69
METAR KP69 212352Z AUTO 00000KT 23/11 A2978 RMK AO1 SLP072 T02280111
10300 20211 55007





000
SAUS45 KMSO 212254
MTRP69
METAR KP69 212252Z AUTO 36003KT 27/08 A2977 RMK AO1 SLP066 T02670078





000
SAUS45 KMSO 212254
MTRP69
METAR KP69 212252Z AUTO 36003KT 27/08 A2977 RMK AO1 SLP066 T02670078





000
SAUS45 KMSO 212154
MTRP69
METAR KP69 212152Z AUTO 28/09 A2978 RMK AO1 SLP068 T02780094





000
SAUS45 KMSO 212154
MTRP69
METAR KP69 212152Z AUTO 28/09 A2978 RMK AO1 SLP068 T02780094





000
SAUS45 KMSO 212054
MTRP69
METAR KP69 212052Z AUTO VRB03KT 25/08 A2980 RMK AO1 SLP077 T02500083
56019





000
SAUS45 KMSO 211954
MTRP69
METAR KP69 211952Z AUTO 13006KT 24/09 A2982 RMK AO1 SLP084 T02440094





000
SAUS45 KMSO 211954
MTRP69
METAR KP69 211952Z AUTO 13006KT 24/09 A2982 RMK AO1 SLP084 T02440094





000
SAUS45 KMSO 211853
MTRP69
METAR KP69 211852Z AUTO 19003KT 24/08 A2982 RMK AO1 SLP085 T02390078





000
SAUS45 KMSO 211853
MTRP69
METAR KP69 211852Z AUTO 19003KT 24/08 A2982 RMK AO1 SLP085 T02390078





000
SAUS45 KMSO 211754
MTRP69
METAR KP69 211752Z AUTO 00000KT 21/08 A2986 RMK AO1 SLP099 T02060078
10211 20083 58029





000
SAUS45 KMSO 211754
MTRP69
METAR KP69 211752Z AUTO 00000KT 21/08 A2986 RMK AO1 SLP099 T02060078
10211 20083 58029





000
SAUS45 KMSO 211654
MTRP69
METAR KP69 211652Z AUTO 00000KT 18/08 A2989 RMK AO1 SLP112 T01830078





000
SAUS45 KMSO 211654
MTRP69
METAR KP69 211652Z AUTO 00000KT 18/08 A2989 RMK AO1 SLP112 T01830078





000
SAUS45 KMSO 211554
MTRP69
METAR KP69 211552Z AUTO 00000KT 14/08 A2992 RMK AO1 SLP125 T01440083





000
SAUS45 KMSO 211454
MTRP69
METAR KP69 211452Z AUTO 34003KT 11/07 A2995 RMK AO1 SLP132 T01110072
58003





000
SAUS45 KMSO 211354
MTRP69
METAR KP69 211352Z AUTO 35003KT 09/07 A2996 RMK AO1 SLP138 T00940072





000
SAUS45 KMSO 211253
MTRP69
METAR KP69 211252Z AUTO 00000KT 09/07 A2996 RMK AO1 SLP135 T00890067





000
SAUS45 KMSO 211253
MTRP69
METAR KP69 211252Z AUTO 00000KT 09/07 A2996 RMK AO1 SLP135 T00890067





000
SAUS45 KMSO 211153
MTRP69
METAR KP69 211152Z AUTO 00000KT 09/07 A2996 RMK AO1 SLP132 T00890067
10128 20089 51015





000
SAUS45 KMSO 211153
MTRP69
METAR KP69 211152Z AUTO 00000KT 09/07 A2996 RMK AO1 SLP132 T00890067
10128 20089 51015





000
SAUS45 KMSO 211054
MTRP69
METAR KP69 211052Z AUTO 35003KT 09/07 A2995 RMK AO1 SLP127 T00890072





000
SAUS45 KMSO 211054
MTRP69
METAR KP69 211052Z AUTO 35003KT 09/07 A2995 RMK AO1 SLP127 T00890072





000
SAUS45 KMSO 210954
MTRP69
METAR KP69 210952Z AUTO 00000KT 10/08 A2993 RMK AO1 SLP119 T01000078





000
SAUS45 KMSO 210853
MTRP69
METAR KP69 210852Z AUTO 34004KT 10/08 A2991 RMK AO1 SLP112 T01000078
51013





000
SAUS45 KMSO 210753
MTRP69
METAR KP69 210752Z AUTO 35003KT 11/08 A2990 RMK AO1 SLP111 T01110083
403060083





    US Dept of Commerce
    National Oceanic and Atmospheric Administration
    National Weather Service
    1325 East West Highway
    Silver Spring, MD 20910
    Page Author: NWS Internet Services Team
Disclaimer
Information Quality
Credits
Glossary
Privacy Policy
Freedom of Information Act (FOIA)
About Us
Career Opportunities